Lewiston, ID (83501)

11:22 AM PDT on September 22, 2014 (GMT -0700)
Normal Hill Weather Station | Change Station
CLOSE
Current Station
Personal Weather Station
Location: Lewiston, ID
Elevation: 805 ft
Nearby Weather Stations
Active Advisory: Air Quality Alert

Elev 805 ft 46.42 °N, 117.03 °W | Updated 3 seconds ago

Clear
Clear
70.3 °F
Feels Like 74 °F
N
0.0
Wind Variable Wind from WNW
Gusts 0.0 mph

Today
High -- | Low -- °F
--% Chance of Precip.
Yesterday
High -- | Low -- °F
Precip. -- in
6:34 AM 6:45 PM
Waning Crescent, 2% visible
Pressure 29.92 in
Visibility 10.0 miles
Clouds Clear
Heat Index 74 °F
Dew Point 26 °F
Humidity 19%
Rainfall 0.00 in
Snow Depth 1 in , 0 in , 0 in
UV 5 out of 12
Pollen 7.50 out of 12
Air Quality Not available.
Flu Activity Not available.
METAR KLWS 221756Z 35003KT 10SM CLR 21/08 A2994 RMK AO2 SLP130 T02110083 10211 20167 51010

More Conditions Fewer Conditions

Pressure 29.92 in
Visibility 10.0 miles
Clouds Clear
Heat Index 74 °F
Dew Point 26 °F
Humidity 19%
Rainfall 0.00 in
Snow Depth 1 in , 0 in , 0 in
UV 5 out of 12
Pollen 7.50 out of 12
Air Quality Not available.
Flu Activity Not available.
METAR KLWS 221756Z 35003KT 10SM CLR 21/08 A2994 RMK AO2 SLP130 T02110083 10211 20167 51010

More Conditions Fewer Conditions

10-Day Weather Forecast

Almanac

Astronomy

Sep. 22, 2014 Rise Set
Actual Time 6:34 AM PDT 6:45 PM PDT
Civil Twilight 6:04 AM PDT 7:15 PM PDT
Nautical Twilight 5:29 AM PDT 7:50 PM PDT
Astronomical Twilight 4:53 AM PDT 8:26 PM PDT
Moon 5:04 AM PDT 5:57 PM PDT
Length of Visible Light 13h 10m
Length of Day
12h 10m
Tomorrow will be 3m 16s shorter.
Waning Crescent, 2% of the Moon is Illuminated
Today
Waning Crescent
Sep 24
New
Oct 1
First Quarter
Oct 8
Full
Oct 15
Last Quarter

Today's Extremes

State Highs State Lows

Community

WunderPhotos

Upload Photos

1,755,506 photos uploaded!

WunderBlogs® & News

By Dr. Jeff Masters
Director of Meteorology, Weather Underground
By Kari Strenfel
Meteorologist, Weather Underground
By Christopher C. Burt
Weather Historian, Weather Underground
September 22, 2014
September 22, 2014
September 22, 2014

Nearby

Snow Depth

Station Depth Elevation
Camas Creek Divide 1 in 5710 ft
Lost-Wood Divide 0 in 7900 ft
Hidden Lake 0 in 5040 ft
Atlanta Summit 0 in 7580 ft
West Branch 0 in 5560 ft

Earthquake Activity

City Distance Mag. Time & Date
No recent earthquake activity has been reported nearby.
Minimum magnitude displayed is 2.5.

Coastal Water Temperatures

Place Temperature
No Stations Reporting

Nearby Weather Stations